Kilkenny, Ireland
Current Conditions -  °F | °C
As of 12:30 PM on Sunday 21 Dec 2014 (Local Time) from EIWF Reporting Station
Haze Haze  
Wind Chill: 52°   Ceiling: 200
Heat Index: 52°   Visibility: 1.4mi
Dew Point: 50°   Wind: 16mph
Humidity: 94%   Direction: 260°W
Pressure: 30.18"   Gusts: 32mph
Location:  52.66°N, 7.26°W
Report Text: EIWF 211230Z 26014G28KT 200V290 2300 BR OVC002 11/10 Q1022 R21/1/////
Loading
Personal Weather Stations






























Interactive Weather Map New forecast layout! Learn more

10-Day Weather Forecast

Advertisements
Track Severe Weather on mobile